| time (UTC) | temp C | wind direction | speed KPH | gust KPH | rain 1hr cm | rain 24hr cm | rain mn cm | humidity % | barometer mb |
| 20260906110435 | 21 | 125 | 1.6 | 3.2 | 0.00 | 0.00 | 0.13 | 99 | 1009.8 |
| 20260906110021 | 21 | 125 | 1.6 | 3.2 | 0.00 | 0.00 | 0.13 | 99 | 1009.8 |
| 20260906105120 | 21 | 41 | 0.0 | 1.6 | 0.00 | 0.00 | 0.13 | 99 | 1010.1 |
| 20260906104650 | 21 | 86 | 1.6 | 1.6 | 0.00 | 0.00 | 0.13 | 99 | 1009.8 |
| 20260906104232 | 21 | 135 | 0.0 | 0.0 | 0.00 | 0.00 | 0.13 | 99 | 1009.8 |
| 20260906103815 | 21 | 82 | 0.0 | 0.0 | 0.00 | 0.00 | 0.13 | 99 | 1009.8 |
| 20260906103359 | 21 | 44 | 3.2 | 3.2 | 0.00 | 0.00 | 0.13 | 99 | 1009.8 |
| 20260906100536 | 21 | 35 | 3.2 | 4.8 | 0.00 | 0.00 | 0.13 | 99 | 1009.4 |
| 20260906100120 | 21 | 35 | 3.2 | 4.8 | 0.00 | 0.00 | 0.13 | 99 | 1009.4 |
| 20260906095217 | 21 | 33 | 4.8 | 6.4 | 0.00 | 0.00 | 0.13 | 99 | 1009.1 |
| 20260906094759 | 21 | 22 | 1.6 | 3.2 | 0.00 | 0.00 | 0.13 | 99 | 1009.1 |
| 20260906094315 | 21 | 63 | 3.2 | 3.2 | 0.00 | 0.00 | 0.13 | 99 | 1009.4 |
| 20260906093842 | 21 | 37 | 3.2 | 4.8 | 0.00 | 0.00 | 0.13 | 99 | 1009.1 |
| 20260906093426 | 21 | 44 | 1.6 | 1.6 | 0.00 | 0.00 | 0.13 | 99 | 1009.1 |
| 20260906093010 | 21 | 72 | 0.0 | 1.6 | 0.00 | 0.00 | 0.13 | 99 | 1009.1 |
| 20260906092553 | 21 | 68 | 0.0 | 0.0 | 0.00 | 0.00 | 0.13 | 99 | 1009.1 |
| 20260906092123 | 21 | 66 | 0.0 | 1.6 | 0.00 | 0.00 | 0.13 | 99 | 1009.1 |
| 20260906091652 | 21 | 95 | 0.0 | 1.6 | 0.00 | 0.00 | 0.13 | 99 | 1009.4 |
| 20260906091236 | 21 | 76 | 0.0 | 1.6 | 0.00 | 0.00 | 0.13 | 99 | 1009.4 |
| 20260906090804 | 21 | 76 | 0.0 | 1.6 | 0.00 | 0.00 | 0.13 | 99 | 1009.4 |
| 20260906090315 | 21 | 47 | 0.0 | 1.6 | 0.00 | 0.00 | 0.13 | 99 | 1009.4 |
| 20260906085427 | 21 | 35 | 3.2 | 3.2 | 0.00 | 0.00 | 0.13 | 99 | 1009.1 |
| 20260906085010 | 21 | 52 | 1.6 | 3.2 | 0.00 | 0.00 | 0.13 | 99 | 1009.4 |
| 20260906084539 | 21 | 27 | 0.0 | 0.0 | 0.00 | 0.00 | 0.13 | 99 | 1009.4 |
| 20260906084108 | 21 | 68 | 0.0 | 1.6 | 0.00 | 0.00 | 0.13 | 99 | 1009.4 |
| 20260906083635 | 21 | 92 | 0.0 | 0.0 | 0.00 | 0.00 | 0.13 | 99 | 1009.4 |
| 20260906083219 | 21 | 294 | 0.0 | 0.0 | 0.00 | 0.00 | 0.13 | 99 | 1009.4 |
| 20260906081858 | 21 | 101 | 0.0 | 0.0 | 0.00 | 0.00 | 0.13 | 99 | 1009.4 |
| 20260906080039 | 21 | 83 | 0.0 | 0.0 | 0.00 | 0.00 | 0.13 | 99 | 1009.1 |
| 20260906075622 | 21 | 72 | 1.6 | 3.2 | 0.00 | 0.00 | 0.13 | 99 | 1009.1 |
| 20260906075151 | 21 | 84 | 1.6 | 3.2 | 0.00 | 0.00 | 0.13 | 99 | 1009.1 |
| 20260906074214 | 22 | 67 | 1.6 | 3.2 | 0.00 | 0.00 | 0.13 | 99 | 1009.4 |
| 20260906073325 | 22 | 67 | 1.6 | 3.2 | 0.00 | 0.00 | 0.13 | 99 | 1009.4 |
| 20260906072908 | 22 | 91 | 1.6 | 3.2 | 0.00 | 0.00 | 0.13 | 99 | 1009.1 |
| 20260906072437 | 22 | 80 | 1.6 | 3.2 | 0.00 | 0.00 | 0.13 | 99 | 1009.1 |
| 20260906071549 | 21 | 79 | 1.6 | 3.2 | 0.00 | 0.00 | 0.13 | 99 | 1009.4 |
| 20260906071133 | 22 | 70 | 1.6 | 3.2 | 0.00 | 0.00 | 0.13 | 99 | 1009.4 |
| 20260906063934 | 22 | 219 | 0.0 | 1.6 | 0.00 | 0.00 | 0.10 | 98 | 1009.4 |
| 20260906063518 | 22 | 219 | 0.0 | 1.6 | 0.00 | 0.00 | 0.10 | 98 | 1009.4 |
| 20260906063100 | 22 | 168 | 0.0 | 0.0 | 0.00 | 0.00 | 0.10 | 98 | 1009.4 |
| 20260906062645 | 22 | 83 | 1.6 | 3.2 | 0.00 | 0.00 | 0.10 | 98 | 1009.4 |
| 20260906061323 | 22 | 102 | 0.0 | 0.0 | 0.00 | 0.00 | 0.10 | 98 | 1010.1 |
| 20260906053950 | 22 | 300 | 1.6 | 3.2 | 0.00 | 0.00 | 0.03 | 97 | 1010.4 |
| 20260906052634 | 22 | 226 | 3.2 | 3.2 | 0.00 | 0.00 | 0.00 | 97 | 1010.4 |
| 20260906051730 | 22 | 310 | 3.2 | 3.2 | 0.00 | 0.00 | 0.00 | 97 | 1010.1 |
| 20260906051245 | 22 | 18 | 3.2 | 3.2 | 0.00 | 0.00 | 0.00 | 97 | 1009.8 |
| 20260906050400 | 22 | 84 | 1.6 | 1.6 | 0.00 | 0.00 | 0.00 | 96 | 1009.8 |
| 20260906045928 | 22 | 84 | 1.6 | 1.6 | 0.00 | 0.00 | 0.00 | 96 | 1009.8 |
| 20260906045511 | 22 | 84 | 1.6 | 1.6 | 0.00 | 0.00 | 0.00 | 96 | 1009.8 |
| 20260906045055 | 22 | 45 | 1.6 | 1.6 | 0.00 | 0.00 | 0.00 | 96 | 1009.8 |
| 20260906044208 | 22 | 87 | 0.0 | 1.6 | 0.00 | 0.00 | 0.00 | 96 | 1009.4 |
| 20260906043737 | 22 | 114 | 0.0 | 1.6 | 0.00 | 0.00 | 0.00 | 96 | 1009.4 |
| 20260906033610 | 23 | 120 | 0.0 | 0.0 | 0.00 | 0.00 | 0.00 | 91 | 1009.1 |
| 20260906033156 | 23 | 120 | 0.0 | 0.0 | 0.00 | 0.00 | 0.00 | 91 | 1009.1 |
| 20260906032721 | 23 | 125 | 0.0 | 0.0 | 0.00 | 0.00 | 0.00 | 92 | 1009.1 |
| 20260906032250 | 23 | 161 | 0.0 | 0.0 | 0.00 | 0.00 | 0.00 | 93 | 1009.1 |
| 20260906031348 | 23 | 162 | 0.0 | 0.0 | 0.00 | 0.00 | 0.00 | 94 | 1009.1 |
| 20260906025346 | 23 | 179 | 0.0 | 0.0 | 0.00 | 0.00 | 0.00 | 93 | 1009.8 |
| 20260906024914 | 23 | 179 | 0.0 | 0.0 | 0.00 | 0.00 | 0.00 | 93 | 1009.8 |
| 20260906024427 | 23 | 179 | 0.0 | 0.0 | 0.00 | 0.00 | 0.00 | 93 | 1009.8 |
| 20260906023954 | 23 | 109 | 0.0 | 0.0 | 0.00 | 0.00 | 0.00 | 94 | 1009.8 |
| 20260906023538 | 23 | 110 | 0.0 | 0.0 | 0.00 | 0.00 | 0.00 | 94 | 1009.8 |
| 20260906023107 | 23 | 110 | 0.0 | 0.0 | 0.00 | 0.00 | 0.00 | 94 | 1009.8 |
| 20260906022636 | 23 | 205 | 0.0 | 0.0 | 0.00 | 0.00 | 0.00 | 94 | 1009.8 |
| 20260906022204 | 23 | 111 | 0.0 | 0.0 | 0.00 | 0.00 | 0.00 | 94 | 1009.8 |
| 20260906021733 | 23 | 206 | 0.0 | 0.0 | 0.00 | 0.00 | 0.00 | 94 | 1009.8 |
| 20260906021316 | 23 | 195 | 0.0 | 0.0 | 0.00 | 0.00 | 0.00 | 94 | 1009.8 |
| 20260906020357 | 23 | 168 | 0.0 | 0.0 | 0.00 | 0.00 | 0.00 | 93 | 1009.4 |
| 20260906015941 | 23 | 101 | 0.0 | 0.0 | 0.00 | 0.00 | 0.00 | 93 | 1009.4 |
| 20260906015509 | 23 | 94 | 0.0 | 0.0 | 0.00 | 0.00 | 0.00 | 93 | 1009.1 |
| 20260906014621 | 23 | 72 | 0.0 | 0.0 | 0.00 | 0.00 | 0.00 | 92 | 1009.4 |
| 20260906014149 | 23 | 106 | 0.0 | 0.0 | 0.00 | 0.00 | 0.00 | 91 | 1009.4 |
| 20260906013733 | 23 | 100 | 0.0 | 0.0 | 0.00 | 0.00 | 0.00 | 90 | 1009.4 |
| 20260906013259 | 23 | 121 | 0.0 | 0.0 | 0.00 | 0.00 | 0.00 | 89 | 1009.1 |
| 20260906012842 | 23 | 129 | 0.0 | 0.0 | 0.00 | 0.00 | 0.00 | 89 | 1009.4 |
| 20260906012411 | 23 | 166 | 0.0 | 0.0 | 0.00 | 0.00 | 0.00 | 89 | 1009.4 |
| 20260906011939 | 24 | 160 | 0.0 | 0.0 | 0.00 | 0.00 | 0.00 | 89 | 1009.1 |
| 20260906011036 | 24 | 142 | 0.0 | 0.0 | 0.00 | 0.00 | 0.00 | 89 | 1009.1 |
| 20260906010133 | 24 | 171 | 0.0 | 0.0 | 0.00 | 0.00 | 0.00 | 88 | 1009.1 |
| 20260906005716 | 24 | 195 | 0.0 | 0.0 | 0.00 | 0.00 | 0.00 | 88 | 1009.1 |
| 20260906005244 | 24 | 106 | 0.0 | 0.0 | 0.00 | 0.00 | 0.00 | 87 | 1009.1 |
| 20260906004813 | 24 | 98 | 0.0 | 0.0 | 0.00 | 0.00 | 0.00 | 88 | 1009.1 |
| 20260906004340 | 24 | 127 | 0.0 | 0.0 | 0.00 | 0.00 | 0.00 | 88 | 1009.1 |
| 20260906003923 | 24 | 127 | 0.0 | 0.0 | 0.00 | 0.00 | 0.00 | 88 | 1009.1 |
| 20260906003506 | 24 | 127 | 0.0 | 0.0 | 0.00 | 0.00 | 0.00 | 88 | 1009.1 |
| 20260906002602 | 25 | 101 | 0.0 | 0.0 | 0.00 | 0.00 | 0.00 | 87 | 1008.8 |
| 20260906002147 | 25 | 132 | 0.0 | 0.0 | 0.00 | 0.00 | 0.00 | 87 | 1008.8 |
| 20260906001729 | 25 | 112 | 0.0 | 0.0 | 0.00 | 0.00 | 0.00 | 87 | 1008.8 |
| 20260906001257 | 25 | 118 | 0.0 | 0.0 | 0.00 | 0.00 | 0.00 | 86 | 1008.8 |
| 20260906000841 | 25 | 90 | 0.0 | 0.0 | 0.00 | 0.00 | 0.00 | 86 | 1009.1 |
| 20260906000411 | 25 | 74 | 0.0 | 0.0 | 0.00 | 0.00 | 0.00 | 85 | 1009.1 |
| 20260905235952 | 25 | 183 | 0.0 | 0.0 | 0.00 | 0.00 | 0.00 | 84 | 1009.1 |
| 20260905235536 | 25 | 173 | 0.0 | 0.0 | 0.00 | 0.00 | 0.00 | 84 | 1009.1 |
| 20260905235047 | 25 | 239 | 0.0 | 0.0 | 0.00 | 0.00 | 0.00 | 84 | 1009.1 |
| 20260905234630 | 26 | 194 | 0.0 | 0.0 | 0.00 | 0.00 | 0.00 | 83 | 1009.4 |
| 20260905234216 | 26 | 194 | 0.0 | 0.0 | 0.00 | 0.00 | 0.00 | 83 | 1009.4 |
| 20260905233801 | 26 | 194 | 0.0 | 0.0 | 0.00 | 0.00 | 0.00 | 83 | 1009.4 |
| 20260905233345 | 26 | 107 | 0.0 | 0.0 | 0.00 | 0.00 | 0.00 | 84 | 1009.4 |
| 20260905231547 | 26 | 20 | 0.0 | 0.0 | 0.00 | 0.00 | 0.00 | 81 | 1009.1 |
| 20260905231119 | 26 | 129 | 0.0 | 0.0 | 0.00 | 0.00 | 0.00 | 80 | 1009.1 |
| 20260905225421 | 27 | 105 | 0.0 | 0.0 | 0.00 | 0.00 | 0.00 | 78 | 1009.1 |
| 20260905224950 | 27 | 135 | 0.0 | 0.0 | 0.00 | 0.00 | 0.00 | 78 | 1009.1 |
| 20260905224535 | 27 | 106 | 0.0 | 0.0 | 0.00 | 0.00 | 0.00 | 79 | 1009.1 |
| 20260905224115 | 27 | 123 | 0.0 | 1.6 | 0.00 | 0.00 | 0.00 | 79 | 1009.1 |
| 20260905214312 | 31 | 37 | 1.6 | 3.2 | 0.00 | 0.00 | 0.00 | 64 | 1009.1 |
| 20260905212943 | 31 | 52 | 3.2 | 3.2 | 0.00 | 0.00 | 0.00 | 63 | 1009.1 |
| 20260905212044 | 32 | 31 | 3.2 | 4.8 | 0.00 | 0.00 | 0.00 | 61 | 1008.8 |
| 20260905211614 | 31 | 52 | 3.2 | 4.8 | 0.00 | 0.00 | 0.00 | 62 | 1009.1 |
| 20260905211158 | 31 | 49 | 4.8 | 6.4 | 0.00 | 0.00 | 0.00 | 62 | 1008.8 |
| 20260905204925 | 34 | 22 | 1.6 | 4.8 | 0.00 | 0.00 | 0.00 | 54 | 1008.8 |
| 20260905204510 | 33 | 140 | 1.6 | 3.2 | 0.00 | 0.00 | 0.00 | 56 | 1008.4 |
| 20260905204053 | 33 | 234 | 6.4 | 8.0 | 0.00 | 0.00 | 0.00 | 56 | 1008.4 |
| 20260905203637 | 33 | 233 | 3.2 | 4.8 | 0.00 | 0.00 | 0.00 | 55 | 1008.4 |
| 20260905203223 | 33 | 286 | 3.2 | 3.2 | 0.00 | 0.00 | 0.00 | 56 | 1008.8 |
| 20260905202042 | 33 | 350 | 4.8 | 6.4 | 0.00 | 0.00 | 0.00 | 55 | 1009.1 |
| 20260905201628 | 33 | 350 | 4.8 | 6.4 | 0.00 | 0.00 | 0.00 | 55 | 1009.1 |
| 20260905200257 | 33 | 301 | 3.2 | 3.2 | 0.00 | 0.00 | 0.00 | 57 | 1009.1 |
| 20260905195412 | 33 | 209 | 3.2 | 3.2 | 0.00 | 0.00 | 0.00 | 54 | 1009.1 |
| 20260905194955 | 33 | 194 | 3.2 | 3.2 | 0.00 | 0.00 | 0.00 | 55 | 1009.1 |
| 20260905194508 | 34 | 80 | 1.6 | 1.6 | 0.00 | 0.00 | 0.00 | 55 | 1009.1 |
| 20260905193605 | 32 | 35 | 3.2 | 4.8 | 0.00 | 0.00 | 0.00 | 56 | 1009.1 |
| 20260905193148 | 32 | 91 | 3.2 | 3.2 | 0.00 | 0.00 | 0.00 | 56 | 1009.1 |
| 20260905192038 | 32 | 248 | 3.2 | 4.8 | 0.00 | 0.00 | 0.00 | 59 | 1009.8 |
| 20260905191622 | 32 | 248 | 3.2 | 4.8 | 0.00 | 0.00 | 0.00 | 59 | 1009.8 |
| 20260905191152 | 32 | 248 | 3.2 | 4.8 | 0.00 | 0.00 | 0.00 | 59 | 1009.8 |
| 20260905190304 | 32 | 283 | 6.4 | 6.4 | 0.00 | 0.00 | 0.00 | 60 | 1009.8 |
| 20260905185834 | 32 | 16 | 6.4 | 9.7 | 0.00 | 0.00 | 0.00 | 58 | 1010.1 |
| 20260905185418 | 32 | 250 | 1.6 | 3.2 | 0.00 | 0.00 | 0.00 | 58 | 1010.1 |
| 20260905184947 | 32 | 133 | 1.6 | 1.6 | 0.00 | 0.00 | 0.00 | 62 | 1010.1 |
| 20260905184532 | 31 | 254 | 8.0 | 8.0 | 0.00 | 0.00 | 0.00 | 61 | 1010.1 |
| 20260905183632 | 31 | 64 | 3.2 | 3.2 | 0.00 | 0.00 | 0.00 | 63 | 1010.1 |
| 20260905174153 | 30 | 309 | 3.2 | 4.8 | 0.00 | 0.00 | 0.00 | 64 | 1010.8 |
| 20260905173738 | 30 | 309 | 3.2 | 4.8 | 0.00 | 0.00 | 0.00 | 64 | 1010.8 |
| 20260905173308 | 30 | 309 | 3.2 | 4.8 | 0.00 | 0.00 | 0.00 | 64 | 1010.8 |
| 20260905172851 | 30 | 35 | 3.2 | 4.8 | 0.00 | 0.00 | 0.00 | 65 | 1010.8 |
| 20260905172435 | 30 | 243 | 4.8 | 6.4 | 0.00 | 0.00 | 0.00 | 67 | 1010.4 |
| 20260905172004 | 30 | 281 | 3.2 | 4.8 | 0.00 | 0.00 | 0.00 | 68 | 1010.4 |
| 20260905171547 | 30 | 278 | 3.2 | 4.8 | 0.00 | 0.00 | 0.00 | 68 | 1010.4 |
| 20260905171133 | 30 | 348 | 4.8 | 6.4 | 0.00 | 0.00 | 0.00 | 64 | 1010.8 |
| 20260905162736 | 28 | 101 | 1.6 | 4.8 | 0.00 | 0.00 | 0.00 | 69 | 1011.1 |
| 20260905162306 | 28 | 196 | 8.0 | 9.7 | 0.00 | 0.00 | 0.00 | 72 | 1011.1 |
| 20260905161847 | 27 | 223 | 8.0 | 9.7 | 0.00 | 0.00 | 0.00 | 77 | 1011.1 |
| 20260905161432 | 27 | 234 | 9.7 | 11.3 | 0.00 | 0.00 | 0.00 | 76 | 1011.1 |
| 20260905161000 | 28 | 215 | 6.4 | 8.0 | 0.00 | 0.00 | 0.00 | 76 | 1011.1 |
| 20260905160546 | 28 | 123 | 0.0 | 1.6 | 0.00 | 0.00 | 0.00 | 76 | 1011.1 |
| 20260905160116 | 28 | 95 | 3.2 | 3.2 | 0.00 | 0.00 | 0.00 | 75 | 1010.8 |
| 20260905155645 | 28 | 203 | 4.8 | 6.4 | 0.00 | 0.00 | 0.00 | 77 | 1010.4 |
| 20260905154209 | 27 | 203 | 6.4 | 6.4 | 0.00 | 0.00 | 0.00 | 80 | 1010.1 |
| 20260905153735 | 27 | 203 | 6.4 | 6.4 | 0.00 | 0.00 | 0.00 | 80 | 1010.1 |
| 20260905153318 | 27 | 203 | 6.4 | 6.4 | 0.00 | 0.00 | 0.00 | 80 | 1010.1 |
| 20260905152901 | 27 | 190 | 6.4 | 6.4 | 0.00 | 0.00 | 0.00 | 81 | 1010.4 |
| 20260905152444 | 26 | 85 | 3.2 | 4.8 | 0.00 | 0.00 | 0.00 | 82 | 1010.8 |
| 20260905152027 | 26 | 192 | 0.0 | 3.2 | 0.00 | 0.00 | 0.00 | 83 | 1010.4 |
| 20260905151555 | 26 | 289 | 3.2 | 3.2 | 0.00 | 0.00 | 0.00 | 85 | 1010.8 |
| 20260905151140 | 25 | 196 | 4.8 | 6.4 | 0.00 | 0.00 | 0.00 | 85 | 1011.1 |
| 20260905150305 | 25 | 206 | 6.4 | 8.0 | 0.00 | 0.00 | 0.00 | 88 | 1011.8 |
| 20260905145849 | 25 | 206 | 6.4 | 8.0 | 0.00 | 0.00 | 0.00 | 88 | 1011.8 |
| 20260905145432 | 25 | 206 | 6.4 | 8.0 | 0.00 | 0.00 | 0.00 | 88 | 1011.8 |
| 20260905145017 | 25 | 250 | 11.3 | 14.5 | 0.00 | 0.00 | 0.00 | 88 | 1011.8 |
| 20260905144559 | 25 | 241 | 4.8 | 6.4 | 0.00 | 0.00 | 0.00 | 87 | 1011.8 |
| 20260905144144 | 25 | 146 | 3.2 | 4.8 | 0.00 | 0.00 | 0.00 | 88 | 1012.1 |
| 20260905143726 | 24 | 213 | 6.4 | 6.4 | 0.00 | 0.00 | 0.00 | 90 | 1012.5 |
| 20260905143256 | 24 | 195 | 4.8 | 6.4 | 0.00 | 0.00 | 0.00 | 91 | 1012.5 |
| 20260905142823 | 23 | 172 | 3.2 | 4.8 | 0.00 | 0.00 | 0.00 | 93 | 1012.8 |
| 20260905142407 | 23 | 175 | 3.2 | 4.8 | 0.00 | 0.00 | 0.00 | 92 | 1013.2 |
| 20260905141948 | 23 | 229 | 11.3 | 12.9 | 0.00 | 0.00 | 0.00 | 92 | 1013.2 |
| 20260905141533 | 23 | 253 | 4.8 | 4.8 | 0.00 | 0.00 | 0.00 | 91 | 1013.2 |
| 20260905140110 | 23 | 17 | 3.2 | 3.2 | 0.00 | 0.00 | 0.00 | 90 | 1012.5 |
| 20260905135652 | 23 | 17 | 3.2 | 3.2 | 0.00 | 0.00 | 0.00 | 90 | 1012.5 |
| 20260905135234 | 23 | 17 | 3.2 | 3.2 | 0.00 | 0.00 | 0.00 | 90 | 1012.5 |
| 20260905134802 | 23 | 45 | 4.8 | 6.4 | 0.00 | 0.00 | 0.00 | 91 | 1012.8 |
| 20260905134347 | 23 | 49 | 4.8 | 6.4 | 0.00 | 0.00 | 0.00 | 91 | 1013.2 |
| 20260905133927 | 23 | 76 | 3.2 | 4.8 | 0.00 | 0.00 | 0.00 | 91 | 1013.2 |
| 20260905133456 | 23 | 23 | 4.8 | 6.4 | 0.00 | 0.00 | 0.00 | 91 | 1013.2 |
| 20260905133024 | 23 | 38 | 8.0 | 11.3 | 0.00 | 0.00 | 0.00 | 91 | 1012.8 |
| 20260905132122 | 23 | 56 | 1.6 | 3.2 | 0.00 | 0.00 | 0.00 | 93 | 1012.8 |
| 20260905131650 | 23 | 26 | 4.8 | 4.8 | 0.00 | 0.00 | 0.00 | 93 | 1012.8 |
| 20260905131234 | 23 | 281 | 3.2 | 4.8 | 0.00 | 0.00 | 0.00 | 94 | 1012.8 |
| 20260905130817 | 23 | 40 | 3.2 | 3.2 | 0.00 | 0.00 | 0.00 | 94 | 1012.8 |
| 20260905130359 | 23 | 33 | 8.0 | 11.3 | 0.00 | 0.00 | 0.00 | 94 | 1012.5 |
| 20260905125928 | 23 | 46 | 3.2 | 4.8 | 0.00 | 0.00 | 0.00 | 94 | 1012.5 |
| 20260905125508 | 23 | 356 | 1.6 | 3.2 | 0.00 | 0.00 | 0.00 | 94 | 1012.5 |
| 20260905125037 | 23 | 78 | 8.0 | 9.7 | 0.00 | 0.00 | 0.00 | 94 | 1012.5 |
| 20260905124150 | 22 | 75 | 4.8 | 8.0 | 0.00 | 0.00 | 0.00 | 95 | 1012.1 |
| 20260905123720 | 22 | 75 | 4.8 | 8.0 | 0.00 | 0.00 | 0.00 | 95 | 1012.1 |
| 20260905123304 | 22 | 75 | 4.8 | 8.0 | 0.00 | 0.00 | 0.00 | 95 | 1012.1 |
| 20260905122848 | 22 | 11 | 6.4 | 8.0 | 0.00 | 0.00 | 0.00 | 95 | 1012.1 |
| 20260905122414 | 22 | 0 | 6.4 | 11.3 | 0.00 | 0.00 | 0.00 | 96 | 1011.8 |
| 20260905121941 | 22 | 299 | 4.8 | 6.4 | 0.00 | 0.00 | 0.00 | 96 | 1011.1 |
| 20260905121527 | 22 | 220 | 1.6 | 3.2 | 0.00 | 0.00 | 0.00 | 97 | 1011.1 |
| 20260905121056 | 22 | 206 | 3.2 | 3.2 | 0.00 | 0.00 | 0.00 | 97 | 1011.1 |
| 20260905120402 | 21 | 203 | 6.4 | 6.4 | 0.00 | 0.00 | 0.00 | 97 | 1011.1 |
| 20260905115500 | 21 | 203 | 6.4 | 6.4 | 0.00 | 0.00 | 0.00 | 97 | 1011.1 |
| 20260905115028 | 21 | 181 | 3.2 | 4.8 | 0.00 | 0.00 | 0.00 | 97 | 1010.8 |
| 20260905114142 | 21 | 218 | 4.8 | 4.8 | 0.00 | 0.00 | 0.00 | 98 | 1010.4 |
| 20260905113726 | 21 | 236 | 3.2 | 3.2 | 0.00 | 0.00 | 0.00 | 98 | 1010.8 |
| 20260905112809 | 21 | 218 | 3.2 | 3.2 | 0.00 | 0.00 | 0.00 | 98 | 1010.4 |
| 20260905111925 | 21 | 213 | 3.2 | 3.2 | 0.00 | 0.00 | 0.00 | 98 | 1010.1 |
| 20260905111510 | 21 | 213 | 3.2 | 3.2 | 0.00 | 0.00 | 0.00 | 98 | 1010.1 |